sensor_id;sensor_type;location;lat;lon;timestamp;pressure;altitude;pressure_sealevel;temperature;humidity
11114;BME280;5610;52.154;9.198;2022-10-26T00:02:33;100791.91;;;10.25;100.00
11114;BME280;5610;52.154;9.198;2022-10-26T00:05:18;100796.28;;;10.26;100.00
11114;BME280;5610;52.154;9.198;2022-10-26T00:08:05;100796.50;;;10.22;100.00
11114;BME280;5610;52.154;9.198;2022-10-26T00:10:56;100795.75;;;10.19;100.00
11114;BME280;5610;52.154;9.198;2022-10-26T00:13:42;100793.81;;;10.23;100.00
11114;BME280;5610;52.154;9.198;2022-10-26T00:16:27;100797.44;;;10.21;100.00
11114;BME280;5610;52.154;9.198;2022-10-26T00:19:12;100797.56;;;10.19;100.00
11114;BME280;5610;52.154;9.198;2022-10-26T00:21:58;100794.13;;;10.17;100.00
11114;BME280;5610;52.154;9.198;2022-10-26T00:24:43;100800.56;;;10.13;100.00
11114;BME280;5610;52.154;9.198;2022-10-26T00:27:30;100803.41;;;10.10;100.00
11114;BME280;5610;52.154;9.198;2022-10-26T00:30:17;100805.66;;;10.02;100.00
11114;BME280;5610;52.154;9.198;2022-10-26T00:33:02;100809.31;;;9.99;100.00
11114;BME280;5610;52.154;9.198;2022-10-26T00:35:52;100807.81;;;9.95;100.00
11114;BME280;5610;52.154;9.198;2022-10-26T00:38:37;100807.94;;;9.92;100.00
11114;BME280;5610;52.154;9.198;2022-10-26T00:41:30;100804.34;;;9.93;100.00
11114;BME280;5610;52.154;9.198;2022-10-26T00:47:48;100802.06;;;9.87;100.00
11114;BME280;5610;52.154;9.198;2022-10-26T00:50:38;100798.50;;;9.86;100.00
11114;BME280;5610;52.154;9.198;2022-10-26T00:53:26;100801.97;;;9.88;100.00
11114;BME280;5610;52.154;9.198;2022-10-26T00:56:11;100805.38;;;9.90;100.00
11114;BME280;5610;52.154;9.198;2022-10-26T00:58:59;100798.16;;;9.93;100.00
11114;BME280;5610;52.154;9.198;2022-10-26T01:01:46;100795.78;;;9.88;100.00
11114;BME280;5610;52.154;9.198;2022-10-26T01:04:34;100793.38;;;9.83;100.00
11114;BME280;5610;52.154;9.198;2022-10-26T01:07:20;100794.22;;;9.84;100.00
11114;BME280;5610;52.154;9.198;2022-10-26T01:10:06;100789.75;;;9.84;100.00
11114;BME280;5610;52.154;9.198;2022-10-26T01:12:53;100793.28;;;9.85;100.00
11114;BME280;5610;52.154;9.198;2022-10-26T01:15:47;100782.06;;;9.80;100.00
11114;BME280;5610;52.154;9.198;2022-10-26T01:18:40;100787.09;;;9.84;100.00
11114;BME280;5610;52.154;9.198;2022-10-26T01:21:39;100782.28;;;9.91;100.00
11114;BME280;5610;52.154;9.198;2022-10-26T01:24:36;100787.69;;;9.89;100.00
11114;BME280;5610;52.154;9.198;2022-10-26T01:27:29;100787.69;;;9.89;100.00
11114;BME280;5610;52.154;9.198;2022-10-26T01:30:22;100790.38;;;9.89;100.00
11114;BME280;5610;52.154;9.198;2022-10-26T01:33:28;100789.50;;;9.89;100.00
11114;BME280;5610;52.154;9.198;2022-10-26T01:36:21;100781.69;;;9.86;100.00
11114;BME280;5610;52.154;9.198;2022-10-26T01:39:12;100770.88;;;9.89;100.00
11114;BME280;5610;52.154;9.198;2022-10-26T01:42:00;100783.25;;;9.90;100.00
11114;BME280;5610;52.154;9.198;2022-10-26T01:44:48;100772.41;;;9.93;100.00
11114;BME280;5610;52.154;9.198;2022-10-26T01:47:37;100773.00;;;9.98;100.00
11114;BME280;5610;52.154;9.198;2022-10-26T01:50:24;100768.72;;;9.96;100.00
11114;BME280;5610;52.154;9.198;2022-10-26T01:53:11;100764.41;;;9.93;100.00
11114;BME280;5610;52.154;9.198;2022-10-26T01:55:57;100760.91;;;9.93;100.00
11114;BME280;5610;52.154;9.198;2022-10-26T01:59:02;100764.41;;;9.93;100.00
11114;BME280;5610;52.154;9.198;2022-10-26T02:02:21;100765.47;;;9.90;100.00
11114;BME280;5610;52.154;9.198;2022-10-26T02:05:25;100755.00;;;9.87;100.00
11114;BME280;5610;52.154;9.198;2022-10-26T02:08:25;100746.94;;;9.89;100.00
11114;BME280;5610;52.154;9.198;2022-10-26T02:11:25;100749.59;;;9.89;100.00
11114;BME280;5610;52.154;9.198;2022-10-26T02:14:20;100742.56;;;9.88;100.00
11114;BME280;5610;52.154;9.198;2022-10-26T02:17:09;100738.66;;;9.94;100.00
11114;BME280;5610;52.154;9.198;2022-10-26T02:20:01;100743.91;;;9.95;100.00
11114;BME280;5610;52.154;9.198;2022-10-26T02:22:50;100744.50;;;9.84;100.00
11114;BME280;5610;52.154;9.198;2022-10-26T02:25:41;100747.34;;;9.97;100.00
11114;BME280;5610;52.154;9.198;2022-10-26T02:28:32;100746.22;;;10.01;100.00
11114;BME280;5610;52.154;9.198;2022-10-26T02:31:19;100735.50;;;10.03;100.00
11114;BME280;5610;52.154;9.198;2022-10-26T02:34:07;100732.91;;;10.01;100.00
11114;BME280;5610;52.154;9.198;2022-10-26T02:36:56;100727.75;;;9.98;100.00
11114;BME280;5610;52.154;9.198;2022-10-26T02:39:45;100727.00;;;9.96;100.00
11114;BME280;5610;52.154;9.198;2022-10-26T02:42:32;100724.59;;;9.91;100.00
11114;BME280;5610;52.154;9.198;2022-10-26T02:45:21;100716.78;;;9.88;100.00
11114;BME280;5610;52.154;9.198;2022-10-26T02:48:08;100715.25;;;9.84;100.00
11114;BME280;5610;52.154;9.198;2022-10-26T02:50:59;100711.91;;;9.81;100.00
11114;BME280;5610;52.154;9.198;2022-10-26T02:53:48;100706.44;;;9.68;100.00
11114;BME280;5610;52.154;9.198;2022-10-26T02:56:41;100714.16;;;9.73;100.00
11114;BME280;5610;52.154;9.198;2022-10-26T02:59:29;100703.91;;;9.65;100.00
11114;BME280;5610;52.154;9.198;2022-10-26T03:02:17;100710.03;;;9.67;100.00
11114;BME280;5610;52.154;9.198;2022-10-26T03:05:07;100702.91;;;9.68;100.00
11114;BME280;5610;52.154;9.198;2022-10-26T03:07:54;100696.28;;;9.75;100.00
11114;BME280;5610;52.154;9.198;2022-10-26T03:10:42;100697.75;;;9.80;100.00
11114;BME280;5610;52.154;9.198;2022-10-26T03:13:29;100693.00;;;9.85;100.00
11114;BME280;5610;52.154;9.198;2022-10-26T03:16:15;100695.75;;;9.84;100.00
11114;BME280;5610;52.154;9.198;2022-10-26T03:19:00;100684.06;;;9.86;100.00
11114;BME280;5610;52.154;9.198;2022-10-26T03:21:45;100685.22;;;9.82;100.00
11114;BME280;5610;52.154;9.198;2022-10-26T03:24:31;100677.31;;;9.81;100.00
11114;BME280;5610;52.154;9.198;2022-10-26T03:27:16;100687.34;;;9.76;100.00
11114;BME280;5610;52.154;9.198;2022-10-26T03:30:04;100682.38;;;9.70;100.00
11114;BME280;5610;52.154;9.198;2022-10-26T03:32:49;100685.03;;;9.70;100.00
11114;BME280;5610;52.154;9.198;2022-10-26T03:35:34;100690.81;;;9.62;100.00
11114;BME280;5610;52.154;9.198;2022-10-26T03:38:19;100685.38;;;9.63;100.00
11114;BME280;5610;52.154;9.198;2022-10-26T03:41:04;100684.28;;;9.68;100.00
11114;BME280;5610;52.154;9.198;2022-10-26T03:43:50;100690.81;;;9.62;100.00
11114;BME280;5610;52.154;9.198;2022-10-26T03:46:36;100697.84;;;9.63;100.00
11114;BME280;5610;52.154;9.198;2022-10-26T03:49:22;100690.47;;;9.68;100.00
11114;BME280;5610;52.154;9.198;2022-10-26T03:52:07;100689.31;;;9.72;100.00
11114;BME280;5610;52.154;9.198;2022-10-26T03:54:52;100687.63;;;9.71;100.00
11114;BME280;5610;52.154;9.198;2022-10-26T03:57:41;100683.75;;;9.77;100.00
11114;BME280;5610;52.154;9.198;2022-10-26T04:00:27;100689.78;;;9.80;100.00
11114;BME280;5610;52.154;9.198;2022-10-26T04:03:13;100688.31;;;9.75;100.00
11114;BME280;5610;52.154;9.198;2022-10-26T04:05:59;100683.75;;;9.77;100.00
11114;BME280;5610;52.154;9.198;2022-10-26T04:08:45;100693.28;;;9.81;100.00
11114;BME280;5610;52.154;9.198;2022-10-26T04:11:30;100690.19;;;9.88;100.00
11114;BME280;5610;52.154;9.198;2022-10-26T04:14:15;100688.03;;;9.95;100.00
11114;BME280;5610;52.154;9.198;2022-10-26T04:17:01;100689.81;;;9.95;100.00
11114;BME280;5610;52.154;9.198;2022-10-26T04:19:47;100687.22;;;9.93;100.00
11114;BME280;5610;52.154;9.198;2022-10-26T04:22:33;100687.72;;;10.00;100.00
11114;BME280;5610;52.154;9.198;2022-10-26T04:25:19;100688.53;;;10.02;100.00
11114;BME280;5610;52.154;9.198;2022-10-26T04:28:06;100687.72;;;10.00;100.00
11114;BME280;5610;52.154;9.198;2022-10-26T04:30:51;100688.03;;;9.95;100.00
11114;BME280;5610;52.154;9.198;2022-10-26T04:33:36;100689.13;;;9.91;100.00
11114;BME280;5610;52.154;9.198;2022-10-26T04:36:23;100688.47;;;9.87;100.00
11114;BME280;5610;52.154;9.198;2022-10-26T04:39:08;100684.25;;;9.83;100.00
11114;BME280;5610;52.154;9.198;2022-10-26T04:41:54;100685.81;;;9.87;100.00
11114;BME280;5610;52.154;9.198;2022-10-26T04:44:39;100684.75;;;9.90;100.00
11114;BME280;5610;52.154;9.198;2022-10-26T04:47:24;100684.50;;;9.95;100.00
11114;BME280;5610;52.154;9.198;2022-10-26T04:50:11;100686.03;;;9.99;100.00
11114;BME280;5610;52.154;9.198;2022-10-26T04:52:58;100690.13;;;10.04;100.00
11114;BME280;5610;52.154;9.198;2022-10-26T04:55:43;100692.91;;;10.03;100.00
11114;BME280;5610;52.154;9.198;2022-10-26T04:58:28;100682.41;;;10.00;100.00
11114;BME280;5610;52.154;9.198;2022-10-26T05:01:14;100684.31;;;9.98;100.00
11114;BME280;5610;52.154;9.198;2022-10-26T05:03:59;100687.06;;;9.96;100.00
11114;BME280;5610;52.154;9.198;2022-10-26T05:06:44;100683.16;;;9.87;100.00
11114;BME280;5610;52.154;9.198;2022-10-26T05:09:31;100686.31;;;9.78;100.00
11114;BME280;5610;52.154;9.198;2022-10-26T05:12:16;100686.25;;;9.80;100.00
11114;BME280;5610;52.154;9.198;2022-10-26T05:15:02;100683.50;;;9.81;100.00
11114;BME280;5610;52.154;9.198;2022-10-26T05:17:53;100681.09;;;9.77;100.00
11114;BME280;5610;52.154;9.198;2022-10-26T05:20:39;100682.22;;;9.73;100.00
11114;BME280;5610;52.154;9.198;2022-10-26T05:23:24;100682.78;;;9.78;100.00
11114;BME280;5610;52.154;9.198;2022-10-26T05:26:11;100686.00;;;9.69;100.00
11114;BME280;5610;52.154;9.198;2022-10-26T05:28:56;100680.69;;;9.69;100.00
11114;BME280;5610;52.154;9.198;2022-10-26T05:31:42;100688.47;;;9.72;100.00
11114;BME280;5610;52.154;9.198;2022-10-26T05:34:27;100683.44;;;9.67;100.00
11114;BME280;5610;52.154;9.198;2022-10-26T05:37:12;100679.81;;;9.68;100.00
11114;BME280;5610;52.154;9.198;2022-10-26T05:39:57;100681.78;;;9.64;100.00
11114;BME280;5610;52.154;9.198;2022-10-26T05:45:29;100685.38;;;9.63;100.00
11114;BME280;5610;52.154;9.198;2022-10-26T05:48:15;100683.25;;;9.70;100.00
11114;BME280;5610;52.154;9.198;2022-10-26T05:51:00;100695.38;;;9.60;100.00
11114;BME280;5610;52.154;9.198;2022-10-26T05:53:45;100690.88;;;9.76;100.00
11114;BME280;5610;52.154;9.198;2022-10-26T05:56:36;100691.63;;;9.78;100.00
11114;BME280;5610;52.154;9.198;2022-10-26T05:59:22;100706.25;;;9.87;100.00
11114;BME280;5610;52.154;9.198;2022-10-26T06:02:15;100704.44;;;9.87;100.00
11114;BME280;5610;52.154;9.198;2022-10-26T06:05:04;100699.63;;;9.94;100.00
11114;BME280;5610;52.154;9.198;2022-10-26T06:07:50;100696.50;;;10.02;100.00
11114;BME280;5610;52.154;9.198;2022-10-26T06:10:36;100704.41;;;10.03;100.00
11114;BME280;5610;52.154;9.198;2022-10-26T06:13:22;100701.47;;;10.08;100.00
11114;BME280;5610;52.154;9.198;2022-10-26T06:16:22;100703.09;;;10.10;100.00
11114;BME280;5610;52.154;9.198;2022-10-26T06:19:21;100708.16;;;10.15;100.00
11114;BME280;5610;52.154;9.198;2022-10-26T06:22:23;100701.19;;;10.12;100.00
11114;BME280;5610;52.154;9.198;2022-10-26T06:25:19;100713.66;;;10.12;100.00
11114;BME280;5610;52.154;9.198;2022-10-26T06:28:18;100715.34;;;10.13;100.00
11114;BME280;5610;52.154;9.198;2022-10-26T06:31:09;100714.59;;;10.11;100.00
11114;BME280;5610;52.154;9.198;2022-10-26T06:33:58;100712.59;;;10.14;100.00
11114;BME280;5610;52.154;9.198;2022-10-26T06:36:45;100714.69;;;10.09;100.00
11114;BME280;5610;52.154;9.198;2022-10-26T06:39:35;100725.34;;;10.09;100.00
11114;BME280;5610;52.154;9.198;2022-10-26T06:42:23;100729.06;;;10.21;100.00
11114;BME280;5610;52.154;9.198;2022-10-26T06:45:11;100725.00;;;10.15;100.00
11114;BME280;5610;52.154;9.198;2022-10-26T06:48:01;100731.56;;;10.40;100.00
11114;BME280;5610;52.154;9.198;2022-10-26T06:50:50;100726.09;;;10.57;100.00
11114;BME280;5610;52.154;9.198;2022-10-26T06:53:41;100723.44;;;10.71;100.00
11114;BME280;5610;52.154;9.198;2022-10-26T06:56:28;100723.72;;;10.81;100.00
11114;BME280;5610;52.154;9.198;2022-10-26T06:59:17;100732.97;;;10.90;100.00
11114;BME280;5610;52.154;9.198;2022-10-26T07:02:07;100734.13;;;11.00;100.00
11114;BME280;5610;52.154;9.198;2022-10-26T07:04:53;100736.97;;;11.11;100.00
11114;BME280;5610;52.154;9.198;2022-10-26T07:07:40;100736.81;;;11.14;100.00
11114;BME280;5610;52.154;9.198;2022-10-26T07:10:27;100730.03;;;11.23;100.00
11114;BME280;5610;52.154;9.198;2022-10-26T07:13:13;100740.13;;;11.18;100.00
11114;BME280;5610;52.154;9.198;2022-10-26T07:15:58;100734.41;;;11.24;100.00
11114;BME280;5610;52.154;9.198;2022-10-26T07:18:43;100739.81;;;11.37;100.00
11114;BME280;5610;52.154;9.198;2022-10-26T07:21:28;100732.75;;;11.50;100.00
11114;BME280;5610;52.154;9.198;2022-10-26T07:24:13;100734.16;;;11.55;100.00
11114;BME280;5610;52.154;9.198;2022-10-26T07:27:00;100740.84;;;11.48;100.00
11114;BME280;5610;52.154;9.198;2022-10-26T07:29:45;100734.84;;;11.59;100.00
11114;BME280;5610;52.154;9.198;2022-10-26T07:32:31;100743.44;;;11.50;100.00
11114;BME280;5610;52.154;9.198;2022-10-26T07:35:16;100745.50;;;11.59;100.00
11114;BME280;5610;52.154;9.198;2022-10-26T07:38:02;100748.44;;;11.69;100.00
11114;BME280;5610;52.154;9.198;2022-10-26T07:40:47;100752.91;;;11.68;100.00
11114;BME280;5610;52.154;9.198;2022-10-26T07:43:34;100766.63;;;11.76;100.00
11114;BME280;5610;52.154;9.198;2022-10-26T07:46:20;100767.97;;;11.83;100.00
11114;BME280;5610;52.154;9.198;2022-10-26T07:49:05;100759.50;;;11.77;100.00
11114;BME280;5610;52.154;9.198;2022-10-26T07:51:51;100759.56;;;11.90;100.00
11114;BME280;5610;52.154;9.198;2022-10-26T07:54:36;100761.66;;;11.99;100.00
11114;BME280;5610;52.154;9.198;2022-10-26T07:57:21;100759.72;;;12.01;100.00
11114;BME280;5610;52.154;9.198;2022-10-26T08:00:09;100748.75;;;12.05;100.00
11114;BME280;5610;52.154;9.198;2022-10-26T08:02:55;100750.94;;;12.26;100.00
11114;BME280;5610;52.154;9.198;2022-10-26T08:05:40;100750.78;;;12.42;100.00
11114;BME280;5610;52.154;9.198;2022-10-26T08:08:25;100747.19;;;12.55;100.00
11114;BME280;5610;52.154;9.198;2022-10-26T08:11:11;100747.72;;;12.73;100.00
11114;BME280;5610;52.154;9.198;2022-10-26T08:13:56;100744.75;;;12.78;100.00
11114;BME280;5610;52.154;9.198;2022-10-26T08:16:42;100754.91;;;13.11;100.00
11114;BME280;5610;52.154;9.198;2022-10-26T08:19:28;100753.75;;;13.28;100.00
11114;BME280;5610;52.154;9.198;2022-10-26T08:22:13;100759.91;;;13.54;100.00
11114;BME280;5610;52.154;9.198;2022-10-26T08:24:59;100747.31;;;13.67;100.00
11114;BME280;5610;52.154;9.198;2022-10-26T08:27:44;100753.94;;;13.74;100.00
11114;BME280;5610;52.154;9.198;2022-10-26T08:30:29;100762.50;;;13.79;100.00
11114;BME280;5610;52.154;9.198;2022-10-26T08:33:16;100755.00;;;14.08;100.00
11114;BME280;5610;52.154;9.198;2022-10-26T08:36:04;100754.09;;;14.20;100.00
11114;BME280;5610;52.154;9.198;2022-10-26T08:38:49;100747.53;;;14.48;100.00
11114;BME280;5610;52.154;9.198;2022-10-26T08:41:37;100741.78;;;14.99;100.00
11114;BME280;5610;52.154;9.198;2022-10-26T08:44:27;100745.72;;;15.40;100.00
11114;BME280;5610;52.154;9.198;2022-10-26T08:47:18;100737.88;;;15.82;100.00
11114;BME280;5610;52.154;9.198;2022-10-26T08:50:09;100734.53;;;16.33;100.00
11114;BME280;5610;52.154;9.198;2022-10-26T08:52:57;100739.31;;;16.82;100.00
11114;BME280;5610;52.154;9.198;2022-10-26T08:55:49;100734.91;;;17.02;100.00
11114;BME280;5610;52.154;9.198;2022-10-26T08:58:37;100740.16;;;17.34;100.00
11114;BME280;5610;52.154;9.198;2022-10-26T09:01:24;100740.31;;;17.82;100.00
11114;BME280;5610;52.154;9.198;2022-10-26T09:04:10;100735.66;;;18.04;100.00
11114;BME280;5610;52.154;9.198;2022-10-26T09:07:03;100734.28;;;18.19;100.00
11114;BME280;5610;52.154;9.198;2022-10-26T09:09:57;100732.28;;;18.21;100.00
11114;BME280;5610;52.154;9.198;2022-10-26T09:12:48;100735.41;;;18.46;100.00
11114;BME280;5610;52.154;9.198;2022-10-26T09:15:47;100732.56;;;18.37;100.00
11114;BME280;5610;52.154;9.198;2022-10-26T09:18:45;100736.97;;;18.67;100.00
11114;BME280;5610;52.154;9.198;2022-10-26T09:21:41;100739.38;;;18.80;100.00
11114;BME280;5610;52.154;9.198;2022-10-26T09:24:32;100742.91;;;18.90;100.00
11114;BME280;5610;52.154;9.198;2022-10-26T09:27:21;100733.34;;;19.06;100.00
11114;BME280;5610;52.154;9.198;2022-10-26T09:30:13;100729.09;;;18.93;100.00
11114;BME280;5610;52.154;9.198;2022-10-26T09:33:02;100734.47;;;19.13;100.00
11114;BME280;5610;52.154;9.198;2022-10-26T09:35:51;100740.38;;;19.26;100.00
11114;BME280;5610;52.154;9.198;2022-10-26T09:38:43;100739.56;;;19.16;100.00
11114;BME280;5610;52.154;9.198;2022-10-26T09:41:38;100740.06;;;19.29;100.00
11114;BME280;5610;52.154;9.198;2022-10-26T09:44:27;100726.38;;;19.40;100.00
11114;BME280;5610;52.154;9.198;2022-10-26T09:47:23;100736.72;;;19.17;100.00
11114;BME280;5610;52.154;9.198;2022-10-26T09:50:19;100736.09;;;19.33;100.00
11114;BME280;5610;52.154;9.198;2022-10-26T09:53:06;100736.97;;;19.52;100.00
11114;BME280;5610;52.154;9.198;2022-10-26T09:56:00;100735.03;;;19.81;100.00
11114;BME280;5610;52.154;9.198;2022-10-26T09:58:52;100737.06;;;20.15;100.00
11114;BME280;5610;52.154;9.198;2022-10-26T10:01:42;100744.31;;;19.96;100.00
11114;BME280;5610;52.154;9.198;2022-10-26T10:04:30;100733.00;;;19.83;100.00
11114;BME280;5610;52.154;9.198;2022-10-26T10:07:17;100733.03;;;20.19;100.00
11114;BME280;5610;52.154;9.198;2022-10-26T10:10:07;100737.22;;;20.31;100.00
11114;BME280;5610;52.154;9.198;2022-10-26T10:12:53;100726.91;;;20.44;100.00
11114;BME280;5610;52.154;9.198;2022-10-26T10:15:40;100730.50;;;20.53;100.00
11114;BME280;5610;52.154;9.198;2022-10-26T10:18:34;100725.63;;;20.56;100.00
11114;BME280;5610;52.154;9.198;2022-10-26T10:21:33;100728.50;;;20.55;100.00
11114;BME280;5610;52.154;9.198;2022-10-26T10:24:22;100732.16;;;20.46;100.00
11114;BME280;5610;52.154;9.198;2022-10-26T10:27:16;100732.72;;;20.04;100.00
11114;BME280;5610;52.154;9.198;2022-10-26T10:30:18;100730.56;;;19.90;100.00
11114;BME280;5610;52.154;9.198;2022-10-26T10:33:08;100738.47;;;20.19;100.00
11114;BME280;5610;52.154;9.198;2022-10-26T10:35:54;100744.44;;;20.84;100.00
11114;BME280;5610;52.154;9.198;2022-10-26T10:38:42;100745.22;;;22.05;100.00
11114;BME280;5610;52.154;9.198;2022-10-26T10:41:29;100738.00;;;24.66;85.04
11114;BME280;5610;52.154;9.198;2022-10-26T10:44:20;100727.41;;;28.07;62.80
11114;BME280;5610;52.154;9.198;2022-10-26T10:47:17;100724.50;;;29.41;53.36
11114;BME280;5610;52.154;9.198;2022-10-26T10:50:07;100730.94;;;30.81;49.33
11114;BME280;5610;52.154;9.198;2022-10-26T10:53:13;100731.00;;;32.51;45.73
11114;BME280;5610;52.154;9.198;2022-10-26T10:59:22;100723.28;;;38.38;35.51
11114;BME280;5610;52.154;9.198;2022-10-26T11:02:28;100717.22;;;40.26;32.19
11114;BME280;5610;52.154;9.198;2022-10-26T11:05:37;100715.13;;;41.05;31.11
11114;BME280;5610;52.154;9.198;2022-10-26T11:08:30;100724.53;;;42.05;30.12
11114;BME280;5610;52.154;9.198;2022-10-26T11:11:19;100728.50;;;42.74;28.80
11114;BME280;5610;52.154;9.198;2022-10-26T11:14:09;100724.97;;;43.15;28.66
11114;BME280;5610;52.154;9.198;2022-10-26T11:17:02;100728.31;;;43.45;27.87
11114;BME280;5610;52.154;9.198;2022-10-26T11:19:54;100719.44;;;43.10;28.54
11114;BME280;5610;52.154;9.198;2022-10-26T11:22:57;100724.16;;;44.20;27.17
11114;BME280;5610;52.154;9.198;2022-10-26T11:25:49;100719.75;;;44.27;27.36
11114;BME280;5610;52.154;9.198;2022-10-26T11:28:40;100715.19;;;45.64;25.91
11114;BME280;5610;52.154;9.198;2022-10-26T11:31:30;100715.94;;;46.05;25.41
11114;BME280;5610;52.154;9.198;2022-10-26T11:34:23;100714.59;;;46.45;25.30
11114;BME280;5610;52.154;9.198;2022-10-26T11:37:12;100714.44;;;46.16;25.25
11114;BME280;5610;52.154;9.198;2022-10-26T11:40:15;100717.06;;;47.20;24.87
11114;BME280;5610;52.154;9.198;2022-10-26T11:43:13;100709.31;;;48.18;23.83
11114;BME280;5610;52.154;9.198;2022-10-26T11:46:03;100715.81;;;48.84;22.99
11114;BME280;5610;52.154;9.198;2022-10-26T11:48:53;100708.16;;;47.98;23.58
11114;BME280;5610;52.154;9.198;2022-10-26T11:51:43;100701.56;;;48.27;23.14
11114;BME280;5610;52.154;9.198;2022-10-26T11:54:34;100691.56;;;49.32;22.23
11114;BME280;5610;52.154;9.198;2022-10-26T11:57:25;100685.75;;;48.80;22.57
11114;BME280;5610;52.154;9.198;2022-10-26T12:00:15;100687.31;;;49.02;22.47
11114;BME280;5610;52.154;9.198;2022-10-26T12:03:05;100681.97;;;48.76;22.73
11114;BME280;5610;52.154;9.198;2022-10-26T12:05:52;100688.66;;;48.05;23.53
11114;BME280;5610;52.154;9.198;2022-10-26T12:08:40;100688.03;;;48.53;23.00
11114;BME280;5610;52.154;9.198;2022-10-26T12:11:35;100696.47;;;48.74;22.54
11114;BME280;5610;52.154;9.198;2022-10-26T12:14:26;100701.69;;;48.96;21.55
11114;BME280;5610;52.154;9.198;2022-10-26T12:17:16;100708.41;;;48.80;21.13
11114;BME280;5610;52.154;9.198;2022-10-26T12:20:10;100705.97;;;49.15;21.28
11114;BME280;5610;52.154;9.198;2022-10-26T12:23:03;100710.56;;;48.29;21.72
11114;BME280;5610;52.154;9.198;2022-10-26T12:25:50;100711.50;;;47.02;22.33
11114;BME280;5610;52.154;9.198;2022-10-26T12:28:39;100704.63;;;47.59;22.57
11114;BME280;5610;52.154;9.198;2022-10-26T12:31:42;100691.81;;;48.57;21.64
11114;BME280;5610;52.154;9.198;2022-10-26T12:34:58;100699.56;;;48.81;21.34
11114;BME280;5610;52.154;9.198;2022-10-26T12:37:44;100690.78;;;47.57;21.94
11114;BME280;5610;52.154;9.198;2022-10-26T12:40:41;100704.00;;;46.60;23.26
11114;BME280;5610;52.154;9.198;2022-10-26T12:43:36;100700.66;;;45.23;23.57
11114;BME280;5610;52.154;9.198;2022-10-26T12:46:40;100705.09;;;43.80;25.01
11114;BME280;5610;52.154;9.198;2022-10-26T12:52:50;100714.16;;;44.13;24.98
11114;BME280;5610;52.154;9.198;2022-10-26T12:56:05;100718.41;;;44.70;25.04
11114;BME280;5610;52.154;9.198;2022-10-26T12:59:02;100715.66;;;45.09;23.92
11114;BME280;5610;52.154;9.198;2022-10-26T13:02:21;100723.97;;;45.23;24.54
11114;BME280;5610;52.154;9.198;2022-10-26T13:05:37;100716.56;;;45.93;23.77
11114;BME280;5610;52.154;9.198;2022-10-26T13:08:38;100735.59;;;46.83;23.16
11114;BME280;5610;52.154;9.198;2022-10-26T13:11:27;100732.34;;;46.37;23.16
11114;BME280;5610;52.154;9.198;2022-10-26T13:14:20;100722.81;;;45.64;23.81
11114;BME280;5610;52.154;9.198;2022-10-26T13:17:20;100715.59;;;44.11;24.82
11114;BME280;5610;52.154;9.198;2022-10-26T13:20:15;100723.72;;;45.02;24.17
11114;BME280;5610;52.154;9.198;2022-10-26T13:23:01;100723.09;;;45.05;24.85
11114;BME280;5610;52.154;9.198;2022-10-26T13:26:03;100716.34;;;45.63;24.31
11114;BME280;5610;52.154;9.198;2022-10-26T13:28:49;100716.66;;;45.05;24.76
11114;BME280;5610;52.154;9.198;2022-10-26T13:31:54;100726.31;;;44.23;25.04
11114;BME280;5610;52.154;9.198;2022-10-26T13:34:41;100726.19;;;43.92;25.33
11114;BME280;5610;52.154;9.198;2022-10-26T13:37:30;100725.38;;;43.64;25.39
11114;BME280;5610;52.154;9.198;2022-10-26T13:40:18;100729.28;;;42.05;26.99
11114;BME280;5610;52.154;9.198;2022-10-26T13:43:12;100729.63;;;40.78;27.79
11114;BME280;5610;52.154;9.198;2022-10-26T13:46:01;100734.91;;;39.42;29.47
11114;BME280;5610;52.154;9.198;2022-10-26T13:48:47;100739.28;;;40.23;28.98
11114;BME280;5610;52.154;9.198;2022-10-26T13:51:40;100740.22;;;40.03;29.50
11114;BME280;5610;52.154;9.198;2022-10-26T13:54:29;100744.78;;;40.33;28.47
11114;BME280;5610;52.154;9.198;2022-10-26T13:57:19;100751.28;;;37.96;31.69
11114;BME280;5610;52.154;9.198;2022-10-26T14:00:15;100761.13;;;36.22;33.58
11114;BME280;5610;52.154;9.198;2022-10-26T14:03:11;100750.50;;;37.00;32.56
11114;BME280;5610;52.154;9.198;2022-10-26T14:05:57;100754.97;;;37.06;32.99
11114;BME280;5610;52.154;9.198;2022-10-26T14:08:44;100763.94;;;38.29;31.47
11114;BME280;5610;52.154;9.198;2022-10-26T14:11:33;100767.53;;;39.41;30.50
11114;BME280;5610;52.154;9.198;2022-10-26T14:14:21;100757.53;;;36.81;32.76
11114;BME280;5610;52.154;9.198;2022-10-26T14:17:17;100773.16;;;33.76;36.64
11114;BME280;5610;52.154;9.198;2022-10-26T14:20:03;100761.56;;;31.53;40.44
11114;BME280;5610;52.154;9.198;2022-10-26T14:22:49;100757.91;;;30.34;43.08
11114;BME280;5610;52.154;9.198;2022-10-26T14:25:34;100772.22;;;28.81;45.50
11114;BME280;5610;52.154;9.198;2022-10-26T14:28:21;100771.13;;;27.74;48.01
11114;BME280;5610;52.154;9.198;2022-10-26T14:31:11;100781.78;;;26.78;51.36
11114;BME280;5610;52.154;9.198;2022-10-26T14:33:59;100782.22;;;26.03;54.43
11114;BME280;5610;52.154;9.198;2022-10-26T14:36:47;100791.00;;;25.54;58.04
11114;BME280;5610;52.154;9.198;2022-10-26T14:39:36;100797.44;;;25.09;60.76
11114;BME280;5610;52.154;9.198;2022-10-26T14:42:26;100790.81;;;24.65;62.87
11114;BME280;5610;52.154;9.198;2022-10-26T14:45:22;100786.69;;;24.16;68.01
11114;BME280;5610;52.154;9.198;2022-10-26T14:48:19;100795.94;;;23.67;71.54
11114;BME280;5610;52.154;9.198;2022-10-26T14:51:09;100800.94;;;23.39;76.09
11114;BME280;5610;52.154;9.198;2022-10-26T14:53:57;100803.03;;;23.21;78.34
11114;BME280;5610;52.154;9.198;2022-10-26T14:56:44;100794.38;;;22.85;82.34
11114;BME280;5610;52.154;9.198;2022-10-26T14:59:30;100800.31;;;22.80;84.70
11114;BME280;5610;52.154;9.198;2022-10-26T15:02:18;100812.03;;;22.64;88.96
11114;BME280;5610;52.154;9.198;2022-10-26T15:05:19;100814.38;;;22.43;91.34
11114;BME280;5610;52.154;9.198;2022-10-26T15:08:40;100815.00;;;22.20;97.57
11114;BME280;5610;52.154;9.198;2022-10-26T15:11:26;100813.88;;;21.97;100.00